Time;durP1;ratioP1;P1;durP2;ratioP2;P2;SDS_P1;SDS_P2;PMS_P1;PMS_P2;Temp;Humidity;BMP_temperature;BMP_pressure;BME280_temperature;BME280_humidity;BME280_pressure;Samples;Min_cycle;Max_cycle;Signal;HPM_P1;HPM_P2
2024/02/14 00:00:32;;;;;;;8.48;2.08;;;;;;;10.47;100.00;100626.72;5071603;28;20032;-70
2024/02/14 00:02:57;;;;;;;10.02;2.25;;;;;;;10.48;100.00;100628.38;5064715;28;20085;-70
2024/02/14 00:05:23;;;;;;;12.30;2.15;;;;;;;10.48;100.00;100628.38;5024032;28;20023;-70
2024/02/14 00:07:48;;;;;;;8.57;2.03;;;;;;;10.50;100.00;100625.28;5083674;28;20029;-70
2024/02/14 00:10:14;;;;;;;8.80;2.65;;;;;;;10.50;100.00;100637.25;5062384;28;20024;-70
2024/02/14 00:12:39;;;;;;;7.22;1.83;;;;;;;10.53;100.00;100641.41;5089147;28;20043;-70
2024/02/14 00:15:07;;;;;;;13.40;1.90;;;;;;;10.52;100.00;100643.31;5072218;28;20412;-70
2024/02/14 00:17:33;;;;;;;8.32;2.05;;;;;;;10.53;100.00;100652.50;5071869;28;20051;-70
2024/02/14 00:19:59;;;;;;;6.55;2.05;;;;;;;10.58;100.00;100648.84;5055024;28;20154;-70
2024/02/14 00:22:25;;;;;;;8.45;1.83;;;;;;;10.54;100.00;100656.94;5074680;28;20114;-70
2024/02/14 00:24:50;;;;;;;7.05;2.97;;;;;;;10.54;100.00;100653.34;5081072;28;20016;-70
2024/02/14 00:27:17;;;;;;;8.73;2.20;;;;;;;10.58;100.00;100648.84;5051255;28;20082;-70
2024/02/14 00:29:46;;;;;;;7.32;2.33;;;;;;;10.55;100.00;100654.97;5070368;28;20036;-70
2024/02/14 00:32:12;;;;;;;6.90;2.03;;;;;;;10.58;100.00;100648.84;5071338;28;20035;-70
2024/02/14 00:34:38;;;;;;;5.10;1.85;;;;;;;10.55;100.00;100638.31;5079914;28;20492;-70
2024/02/14 00:37:03;;;;;;;11.30;2.20;;;;;;;10.56;100.00;100645.53;5069998;28;20046;-70
2024/02/14 00:39:29;;;;;;;11.70;2.67;;;;;;;10.58;100.00;100649.66;5071088;28;20392;-70
2024/02/14 00:41:55;;;;;;;6.70;2.00;;;;;;;10.58;100.00;100648.84;5069864;28;20028;-70
2024/02/14 00:44:21;;;;;;;5.20;1.83;;;;;;;10.60;100.00;100630.78;5070228;28;20496;-70
2024/02/14 00:46:48;;;;;;;7.35;2.00;;;;;;;10.62;100.00;100634.09;5051103;28;20144;-71
2024/02/14 00:49:13;;;;;;;8.48;2.20;;;;;;;10.59;100.00;100633.84;5078377;28;20392;-70
2024/02/14 00:51:39;;;;;;;8.43;1.70;;;;;;;10.59;100.00;100619.97;5053898;28;20020;-70
2024/02/14 00:54:05;;;;;;;5.88;1.73;;;;;;;10.59;100.00;100617.19;5078375;28;20028;-70
2024/02/14 00:56:31;;;;;;;6.68;1.95;;;;;;;10.57;100.00;100616.66;5050876;28;20039;-70
2024/02/14 00:58:56;;;;;;;5.05;1.60;;;;;;;10.57;100.00;100619.44;5060125;28;20029;-70
2024/02/14 01:01:22;;;;;;;8.82;1.90;;;;;;;10.58;100.00;100612.75;5062826;28;20032;-70
2024/02/14 01:03:47;;;;;;;6.80;1.60;;;;;;;10.58;100.00;100618.28;5079320;28;20114;-70
2024/02/14 01:06:14;;;;;;;4.43;1.33;;;;;;;10.53;100.00;100619.19;5097473;28;20504;-70
2024/02/14 01:08:41;;;;;;;8.98;1.95;;;;;;;10.59;100.00;100614.41;5064163;28;20067;-70
2024/02/14 01:11:06;;;;;;;3.92;1.55;;;;;;;10.57;100.00;100608.31;5041350;28;20027;-70
2024/02/14 01:13:32;;;;;;;5.63;1.40;;;;;;;10.54;100.00;100614.47;5046463;28;20441;-70
2024/02/14 01:15:57;;;;;;;6.25;1.45;;;;;;;10.55;100.00;100614.16;5086919;28;20024;-70
2024/02/14 01:18:24;;;;;;;6.57;1.55;;;;;;;10.55;100.00;100599.44;5079337;28;20032;-70
2024/02/14 01:20:49;;;;;;;9.48;1.65;;;;;;;10.60;100.00;100610.50;5092033;28;20024;-70
2024/02/14 01:23:15;;;;;;;8.07;1.55;;;;;;;10.59;100.00;100600.53;5088337;28;20043;-70
2024/02/14 01:25:42;;;;;;;7.32;1.98;;;;;;;10.58;100.00;100604.41;5064544;28;20149;-70
2024/02/14 01:28:08;;;;;;;8.98;1.80;;;;;;;10.58;100.00;100605.22;5058552;28;20111;-70
2024/02/14 01:30:35;;;;;;;5.03;1.50;;;;;;;10.55;100.00;100605.81;5063841;28;20025;-70
2024/02/14 01:33:03;;;;;;;11.43;1.98;;;;;;;10.59;100.00;100606.09;5038404;28;20233;-70
2024/02/14 01:35:30;;;;;;;7.13;1.50;;;;;;;10.57;100.00;100609.13;5066374;28;20476;-70
2024/02/14 01:37:55;;;;;;;8.52;1.85;;;;;;;10.58;100.00;100609.97;5056256;28;20489;-70
2024/02/14 01:40:21;;;;;;;6.95;2.10;;;;;;;10.55;100.00;100613.31;5065464;28;20029;-70
2024/02/14 01:42:46;;;;;;;13.07;2.55;;;;;;;10.56;100.00;100621.38;5078732;28;20027;-70
2024/02/14 01:45:12;;;;;;;11.60;2.17;;;;;;;10.57;100.00;100633.31;5056367;28;20020;-70
2024/02/14 01:47:39;;;;;;;11.35;2.63;;;;;;;10.58;100.00;100637.72;5051987;28;20101;-70
2024/02/14 01:50:08;;;;;;;8.35;2.03;;;;;;;10.56;100.00;100632.50;5049498;28;20028;-70
2024/02/14 01:52:35;;;;;;;15.88;2.65;;;;;;;10.58;100.00;100649.66;5058770;28;20029;-70
2024/02/14 01:55:01;;;;;;;8.02;2.35;;;;;;;10.59;100.00;100647.75;5032304;28;20082;-70
2024/02/14 01:57:26;;;;;;;13.57;2.22;;;;;;;10.59;100.00;100644.97;5053524;28;20032;-70
2024/02/14 01:59:52;;;;;;;14.45;3.03;;;;;;;10.60;100.00;100649.38;5068227;28;20434;-70
2024/02/14 02:02:17;;;;;;;11.32;2.45;;;;;;;10.60;100.00;100649.38;5063192;28;20036;-71
2024/02/14 02:04:43;;;;;;;14.55;2.58;;;;;;;10.58;100.00;100654.41;5062316;28;20038;-70
2024/02/14 02:07:08;;;;;;;10.38;2.40;;;;;;;10.56;100.00;100657.47;5060843;28;20500;-71
2024/02/14 02:09:34;;;;;;;14.02;2.40;;;;;;;10.57;100.00;100669.41;5062462;28;20058;-71
2024/02/14 02:12:00;;;;;;;16.65;3.10;;;;;;;10.58;100.00;100665.50;5079621;28;20451;-70
2024/02/14 02:14:26;;;;;;;12.57;2.78;;;;;;;10.60;100.00;100674.38;5046760;28;20609;-70
2024/02/14 02:16:52;;;;;;;15.85;2.35;;;;;;;10.58;100.00;100668.28;5068513;28;20066;-71
2024/02/14 02:19:17;;;;;;;11.95;2.40;;;;;;;10.58;100.00;100668.28;5045893;28;20038;-70
2024/02/14 02:21:45;;;;;;;18.52;2.97;;;;;;;10.60;100.00;100674.38;5078976;28;20362;-71
2024/02/14 02:24:11;;;;;;;14.48;2.50;;;;;;;10.58;100.00;100671.88;5039648;28;20028;-71
2024/02/14 02:26:37;;;;;;;16.80;3.15;;;;;;;10.60;100.00;100674.38;5056560;28;20480;-70
2024/02/14 02:29:02;;;;;;;14.68;2.70;;;;;;;10.59;100.00;100669.97;5061857;28;20099;-70
2024/02/14 02:31:27;;;;;;;14.65;2.40;;;;;;;10.57;100.00;100663.84;5059453;28;20028;-71
2024/02/14 02:33:53;;;;;;;13.55;3.15;;;;;;;10.60;100.00;100663.28;5042358;28;20565;-71
2024/02/14 02:36:18;;;;;;;16.45;3.17;;;;;;;10.59;100.00;100669.97;5086330;28;20033;-71
2024/02/14 02:38:44;;;;;;;16.00;3.22;;;;;;;10.60;100.00;100674.38;5076586;28;20039;-70
2024/02/14 02:41:09;;;;;;;14.93;2.95;;;;;;;10.58;100.00;100666.31;5076111;28;20028;-70
2024/02/14 02:43:35;;;;;;;16.98;2.95;;;;;;;10.57;100.00;100663.84;5061023;28;20062;-70
2024/02/14 02:46:01;;;;;;;15.40;3.28;;;;;;;10.62;100.00;100655.50;5054723;28;20032;-70
2024/02/14 02:48:26;;;;;;;12.65;2.85;;;;;;;10.61;100.00;100653.81;5068848;28;20062;-70
2024/02/14 02:50:52;;;;;;;24.45;3.88;;;;;;;10.61;100.00;100651.03;5077487;28;20024;-70
2024/02/14 02:53:18;;;;;;;16.40;3.10;;;;;;;10.59;100.00;100644.97;5062972;28;20115;-70
2024/02/14 02:55:43;;;;;;;17.20;3.05;;;;;;;10.63;100.00;100635.75;5076511;28;20432;-70
2024/02/14 02:58:09;;;;;;;18.27;3.50;;;;;;;10.64;100.00;100636.56;5039417;28;20016;-70
2024/02/14 03:00:35;;;;;;;21.02;3.22;;;;;;;10.63;100.00;100640.47;5078599;28;20032;-70
2024/02/14 03:03:02;;;;;;;20.27;3.25;;;;;;;10.63;100.00;100651.59;5068664;28;20046;-70
2024/02/14 03:05:28;;;;;;;26.67;4.13;;;;;;;10.64;100.00;100639.34;5069524;28;20031;-70
2024/02/14 03:07:57;;;;;;;26.75;3.90;;;;;;;10.63;100.00;100640.47;5085060;28;20601;-70
2024/02/14 03:10:22;;;;;;;18.98;3.67;;;;;;;10.62;100.00;100644.38;5053448;28;20035;-70
2024/02/14 03:12:48;;;;;;;23.00;3.42;;;;;;;10.63;100.00;100646.84;5059326;28;20027;-70
2024/02/14 03:15:14;;;;;;;23.95;3.60;;;;;;;10.61;100.00;100639.94;5068931;28;20111;-70
2024/02/14 03:17:39;;;;;;;17.20;4.10;;;;;;;10.60;100.00;100647.44;5067209;28;20048;-70
2024/02/14 03:20:14;;;;;;;19.95;3.72;;;;;;;10.60;100.00;100636.31;5076543;28;20029;-70
2024/02/14 03:22:46;;;;;;;26.70;4.05;;;;;;;10.61;100.00;100642.69;5056825;28;20109;-70
2024/02/14 03:25:18;;;;;;;28.60;4.20;;;;;;;10.60;100.00;100647.44;5061812;28;20500;-70
2024/02/14 03:27:53;;;;;;;21.90;4.07;;;;;;;10.57;100.00;100633.31;5064375;28;20063;-70
2024/02/14 03:30:20;;;;;;;25.00;4.53;;;;;;;10.57;100.00;100633.31;5072484;28;20056;-70
2024/02/14 03:32:46;;;;;;;18.80;3.50;;;;;;;10.54;100.00;100637.50;5062120;28;20028;-70
2024/02/14 03:35:14;;;;;;;31.58;4.68;;;;;;;10.56;100.00;100639.97;5059518;28;20238;-70
2024/02/14 03:37:43;;;;;;;25.08;3.65;;;;;;;10.56;100.00;100639.97;5064597;28;20027;-70
2024/02/14 03:40:09;;;;;;;23.88;4.05;;;;;;;10.58;100.00;100632.19;5074201;28;20481;-70
2024/02/14 03:42:35;;;;;;;27.33;4.63;;;;;;;10.56;100.00;100628.84;5061247;28;20033;-70
2024/02/14 03:45:05;;;;;;;23.92;4.22;;;;;;;10.55;100.00;100628.03;5060851;28;20042;-70
2024/02/14 03:47:32;;;;;;;21.08;3.90;;;;;;;10.54;100.00;100620.00;5079445;28;20056;-70
2024/02/14 03:49:58;;;;;;;20.95;3.97;;;;;;;10.51;100.00;100624.19;5050169;28;20032;-70
2024/02/14 03:52:24;;;;;;;27.45;3.67;;;;;;;10.51;100.00;100632.53;5046907;28;20107;-70
2024/02/14 03:54:50;;;;;;;23.80;4.10;;;;;;;10.49;100.00;100621.69;5088041;28;20051;-70
2024/02/14 03:57:17;;;;;;;27.75;4.22;;;;;;;10.51;100.00;100625.03;5080732;28;20028;-70
2024/02/14 03:59:43;;;;;;;28.13;4.05;;;;;;;10.49;100.00;100629.19;5051789;28;20584;-70
2024/02/14 04:02:09;;;;;;;23.20;3.20;;;;;;;10.51;100.00;100625.03;5062782;28;20032;-70
2024/02/14 04:04:36;;;;;;;22.73;3.92;;;;;;;10.52;100.00;100643.31;5080406;28;20032;-70
2024/02/14 04:07:03;;;;;;;22.38;3.13;;;;;;;10.52;100.00;100643.31;5080682;28;20481;-70
2024/02/14 04:09:28;;;;;;;20.73;3.35;;;;;;;10.54;100.00;100642.22;5067911;28;20028;-70
2024/02/14 04:11:54;;;;;;;24.08;3.92;;;;;;;10.54;100.00;100631.94;5079285;28;20039;-70
2024/02/14 04:14:19;;;;;;;23.23;3.65;;;;;;;10.58;100.00;100637.72;5071648;28;20377;-70
2024/02/14 04:16:44;;;;;;;25.23;3.53;;;;;;;10.52;100.00;100636.94;5079022;28;20080;-70
2024/02/14 04:19:10;;;;;;;27.63;4.18;;;;;;;10.53;100.00;100635.84;5079689;28;20470;-71
2024/02/14 04:21:37;;;;;;;23.52;3.63;;;;;;;10.55;100.00;100628.03;5062616;28;20031;-70
2024/02/14 04:24:03;;;;;;;20.98;3.15;;;;;;;10.57;100.00;100633.31;5070914;28;20503;-70
2024/02/14 04:26:29;;;;;;;31.38;4.53;;;;;;;10.57;100.00;100625.81;5068565;28;20032;-70
2024/02/14 04:28:55;;;;;;;16.23;3.00;;;;;;;10.58;100.00;100632.19;5081634;28;20032;-70
2024/02/14 04:31:20;;;;;;;21.13;3.00;;;;;;;10.60;100.00;100633.53;5046904;28;20043;-70
2024/02/14 04:33:51;;;;;;;27.30;4.10;;;;;;;10.59;100.00;100634.69;5066975;28;20039;-70
2024/02/14 04:36:20;;;;;;;23.50;3.38;;;;;;;10.61;100.00;100620.47;5072379;28;20484;-70
2024/02/14 04:38:46;;;;;;;17.38;3.00;;;;;;;10.66;100.00;100629.59;5049850;28;20016;-70
2024/02/14 04:41:12;;;;;;;23.35;3.33;;;;;;;10.64;100.00;100626.31;5062325;28;20408;-70
2024/02/14 04:43:37;;;;;;;21.50;3.45;;;;;;;10.65;100.00;100638.25;5066558;28;20028;-70
2024/02/14 04:46:06;;;;;;;18.85;3.00;;;;;;;10.65;100.00;100638.25;5073525;28;20036;-70
2024/02/14 04:48:35;;;;;;;15.98;2.83;;;;;;;10.65;100.00;100654.91;5070157;28;20519;-70
2024/02/14 04:51:01;;;;;;;20.52;3.53;;;;;;;10.66;100.00;100645.44;5063670;28;20539;-70
2024/02/14 04:53:27;;;;;;;23.65;2.92;;;;;;;10.66;100.00;100648.22;5066650;28;20024;-70
2024/02/14 04:55:53;;;;;;;18.45;3.47;;;;;;;10.68;100.00;100637.66;5043186;28;20032;-70
2024/02/14 04:58:19;;;;;;;18.33;3.53;;;;;;;10.70;100.00;100646.53;5066073;28;20024;-70
2024/02/14 05:00:45;;;;;;;16.10;4.07;;;;;;;10.71;100.00;100653.72;5062979;28;20035;-70
2024/02/14 05:03:10;;;;;;;17.85;3.30;;;;;;;10.70;100.00;100654.88;5049636;28;20033;-70
2024/02/14 05:05:36;;;;;;;18.98;2.83;;;;;;;10.70;100.00;100652.91;5079356;28;20035;-70
2024/02/14 05:08:02;;;;;;;22.65;3.47;;;;;;;10.74;100.00;100645.63;5076548;28;20479;-70
2024/02/14 05:10:28;;;;;;;17.55;3.60;;;;;;;10.74;100.00;100651.19;5071399;28;20036;-70
2024/02/14 05:12:54;;;;;;;16.95;3.22;;;;;;;10.74;100.00;100644.81;5049593;28;20032;-70
2024/02/14 05:15:19;;;;;;;18.08;2.88;;;;;;;10.74;100.00;100647.59;5062598;28;20024;-70
2024/02/14 05:17:45;;;;;;;19.17;3.28;;;;;;;10.74;100.00;100642.84;5097458;28;20032;-70
2024/02/14 05:20:11;;;;;;;20.88;3.22;;;;;;;10.76;100.00;100639.81;5031023;28;20050;-70
2024/02/14 05:22:37;;;;;;;20.40;3.40;;;;;;;10.77;100.00;100657.28;5057418;28;20038;-70
2024/02/14 05:25:04;;;;;;;13.80;2.83;;;;;;;10.79;100.00;100647.53;5045966;28;20066;-70
2024/02/14 05:27:30;;;;;;;20.00;3.20;;;;;;;10.80;100.00;100649.19;5040993;28;20039;-70
2024/02/14 05:29:55;;;;;;;15.45;2.92;;;;;;;10.79;100.00;100650.31;5041518;28;20110;-71
2024/02/14 05:32:21;;;;;;;20.15;3.28;;;;;;;10.82;100.00;100657.25;5026696;28;20024;-71
2024/02/14 05:34:46;;;;;;;15.70;2.85;;;;;;;10.84;100.00;100663.34;5042536;28;20086;-71
2024/02/14 05:37:12;;;;;;;18.25;3.03;;;;;;;10.82;100.00;100663.63;5078586;28;20432;-70
2024/02/14 05:39:37;;;;;;;20.05;3.85;;;;;;;10.82;100.00;100668.38;5044966;28;20067;-70
2024/02/14 05:42:05;;;;;;;21.23;3.40;;;;;;;10.84;100.00;100663.34;5062024;28;20046;-71
2024/02/14 05:44:31;;;;;;;18.30;3.47;;;;;;;10.86;100.00;100667.47;5062405;28;20032;-71
2024/02/14 05:46:56;;;;;;;19.30;3.05;;;;;;;10.87;100.00;100660.81;5079889;28;20032;-71
2024/02/14 05:49:22;;;;;;;13.15;2.88;;;;;;;10.86;100.00;100666.66;5078021;28;20075;-70
2024/02/14 05:51:47;;;;;;;22.42;3.70;;;;;;;10.84;100.00;100678.06;5062579;28;20084;-70
2024/02/14 05:54:13;;;;;;;25.35;3.17;;;;;;;10.84;100.00;100663.34;5079374;28;20027;-70
2024/02/14 05:56:38;;;;;;;17.55;3.03;;;;;;;10.85;100.00;100665.00;5063738;28;20115;-70
2024/02/14 05:59:04;;;;;;;18.92;3.63;;;;;;;10.85;100.00;100671.38;5063664;28;20016;-71
2024/02/14 06:01:30;;;;;;;15.93;3.00;;;;;;;10.84;100.00;100669.72;5062112;28;20024;-70
2024/02/14 06:03:55;;;;;;;21.52;3.45;;;;;;;10.83;100.00;100662.50;5061396;28;20059;-70
2024/02/14 06:06:21;;;;;;;28.60;3.58;;;;;;;10.84;100.00;100669.72;5063531;28;20404;-70
2024/02/14 06:08:47;;;;;;;25.60;3.55;;;;;;;10.85;100.00;100667.78;5080314;28;20024;-70
2024/02/14 06:11:14;;;;;;;21.90;2.78;;;;;;;10.84;100.00;100664.19;5029239;28;20027;-70
2024/02/14 06:13:39;;;;;;;19.10;3.70;;;;;;;10.85;100.00;100665.81;5078497;28;20032;-70
2024/02/14 06:16:05;;;;;;;17.90;3.80;;;;;;;10.84;100.00;100664.19;5046904;28;20058;-70
2024/02/14 06:18:31;;;;;;;18.73;3.25;;;;;;;10.86;100.00;100669.41;5063814;28;20116;-70
2024/02/14 06:20:56;;;;;;;24.05;3.65;;;;;;;10.87;100.00;100676.66;5067716;28;20023;-70
2024/02/14 06:23:21;;;;;;;19.77;3.28;;;;;;;10.89;100.00;100678.03;5061418;28;20047;-70
2024/02/14 06:25:47;;;;;;;16.77;3.35;;;;;;;10.86;100.00;100689.69;5063202;28;20037;-70
2024/02/14 06:28:12;;;;;;;19.23;2.95;;;;;;;10.84;100.00;100680.84;5061147;28;20032;-70
2024/02/14 06:30:38;;;;;;;21.35;3.60;;;;;;;10.85;100.00;100688.03;5072763;28;20028;-70
2024/02/14 06:33:03;;;;;;;24.10;2.67;;;;;;;10.84;100.00;100686.41;5061104;28;20036;-70
2024/02/14 06:35:29;;;;;;;20.77;3.22;;;;;;;10.83;100.00;100679.16;5061277;28;20507;-70
2024/02/14 06:37:55;;;;;;;20.23;3.72;;;;;;;10.83;100.00;100679.16;5061898;28;20031;-70
2024/02/14 06:40:20;;;;;;;18.50;3.17;;;;;;;10.80;100.00;100685.31;5063007;28;20028;-70
2024/02/14 06:42:46;;;;;;;16.98;2.75;;;;;;;10.80;100.00;100699.19;5052764;28;20028;-70
2024/02/14 06:45:11;;;;;;;22.27;3.20;;;;;;;10.82;100.00;100698.91;5059463;28;20025;-70
2024/02/14 06:47:37;;;;;;;15.55;3.15;;;;;;;10.78;100.00;100709.78;5077697;28;20048;-70
2024/02/14 06:50:03;;;;;;;22.95;3.25;;;;;;;10.80;100.00;100698.38;5081105;28;20032;-70
2024/02/14 06:52:28;;;;;;;20.55;2.95;;;;;;;10.79;100.00;100705.06;5045211;28;20560;-70
2024/02/14 06:54:54;;;;;;;19.40;2.88;;;;;;;10.77;100.00;100719.22;5065640;28;20037;-71
2024/02/14 06:57:19;;;;;;;24.15;3.15;;;;;;;10.74;100.00;100723.41;5076443;28;20443;-71
2024/02/14 06:59:45;;;;;;;15.65;3.20;;;;;;;10.77;100.00;100724.78;5065661;28;20032;-71
2024/02/14 07:02:10;;;;;;;17.10;3.05;;;;;;;10.76;100.00;100722.31;5084243;28;20031;-71
2024/02/14 07:04:37;;;;;;;24.05;3.80;;;;;;;10.77;100.00;100722.00;5065523;28;20065;-71
2024/02/14 07:07:03;;;;;;;16.52;3.08;;;;;;;10.76;100.00;100725.91;5077728;28;20039;-71
2024/02/14 07:09:28;;;;;;;25.00;3.58;;;;;;;10.76;100.00;100728.69;5065071;28;20377;-71
2024/02/14 07:11:56;;;;;;;20.33;2.70;;;;;;;10.74;100.00;100726.19;5096636;28;20028;-71
2024/02/14 07:14:22;;;;;;;16.80;2.90;;;;;;;10.74;100.00;100722.59;5046494;28;20019;-71
2024/02/14 07:16:47;;;;;;;20.65;3.10;;;;;;;10.74;100.00;100730.94;5089546;28;20034;-71
2024/02/14 07:19:13;;;;;;;21.02;3.35;;;;;;;10.78;100.00;100726.47;5067835;28;20028;-71
2024/02/14 07:21:38;;;;;;;23.23;3.58;;;;;;;10.77;100.00;100730.34;5092563;28;20032;-71
2024/02/14 07:24:05;;;;;;;19.90;3.53;;;;;;;10.79;100.00;100736.44;5075081;28;20024;-70
2024/02/14 07:26:30;;;;;;;19.25;3.63;;;;;;;10.81;100.00;100737.00;5097970;28;20476;-71
2024/02/14 07:28:56;;;;;;;23.55;3.63;;;;;;;10.79;100.00;100736.44;5077095;28;20021;-71
2024/02/14 07:31:21;;;;;;;26.08;3.80;;;;;;;10.80;100.00;100749.22;5053901;28;20046;-71
2024/02/14 07:33:48;;;;;;;25.83;3.38;;;;;;;10.82;100.00;100749.75;5087775;28;20477;-69
2024/02/14 07:36:14;;;;;;;20.33;2.95;;;;;;;10.83;100.00;100748.63;5086500;28;20028;-70
2024/02/14 07:38:39;;;;;;;23.08;4.18;;;;;;;10.82;100.00;100738.63;5064848;28;20165;-70
2024/02/14 07:41:05;;;;;;;18.95;4.45;;;;;;;10.86;100.00;100736.09;5065550;28;20028;-70
2024/02/14 07:43:30;;;;;;;23.45;3.88;;;;;;;10.83;100.00;100737.50;5039156;28;20043;-70
2024/02/14 07:45:56;;;;;;;22.27;3.72;;;;;;;10.84;100.00;100744.75;5074701;28;20388;-70
2024/02/14 07:48:22;;;;;;;25.45;3.80;;;;;;;10.85;100.00;100749.16;5046367;28;20048;-71
2024/02/14 07:50:48;;;;;;;26.65;3.50;;;;;;;10.85;100.00;100743.63;5039036;28;20028;-69
2024/02/14 07:53:13;;;;;;;22.83;4.45;;;;;;;10.85;100.00;100742.78;5035084;28;20040;-70
2024/02/14 07:55:39;;;;;;;25.25;4.40;;;;;;;10.87;100.00;100740.56;5015118;28;20040;-69
2024/02/14 07:58:05;;;;;;;22.52;4.03;;;;;;;10.87;100.00;100741.38;5036651;28;20029;-69
2024/02/14 08:00:30;;;;;;;23.45;3.60;;;;;;;10.90;100.00;100751.09;5057050;28;20394;-70
2024/02/14 08:02:56;;;;;;;18.48;3.70;;;;;;;10.88;100.00;100753.31;5021737;28;20442;-71
2024/02/14 08:05:21;;;;;;;23.35;3.92;;;;;;;10.91;100.00;100753.56;5023618;28;20086;-70
2024/02/14 08:07:47;;;;;;;22.15;3.67;;;;;;;10.90;100.00;100754.69;5035667;28;20026;-71
2024/02/14 08:10:13;;;;;;;18.30;3.22;;;;;;;10.93;100.00;100756.88;5052162;28;20033;-71
2024/02/14 08:12:38;;;;;;;21.98;3.47;;;;;;;10.95;100.00;100749.09;5047922;28;20025;-71
2024/02/14 08:15:06;;;;;;;27.50;3.38;;;;;;;10.98;100.00;100757.94;5051334;28;20059;-71
2024/02/14 08:17:32;;;;;;;22.25;3.63;;;;;;;11.00;100.00;100762.09;5023071;28;20035;-71
2024/02/14 08:19:57;;;;;;;23.17;3.83;;;;;;;11.05;100.00;100764.03;5020957;28;20025;-71
2024/02/14 08:22:23;;;;;;;19.17;3.75;;;;;;;11.05;100.00;100756.50;5063422;28;20040;-71
2024/02/14 08:24:48;;;;;;;25.58;3.78;;;;;;;11.10;100.00;100763.97;5038102;28;20037;-71
2024/02/14 08:27:14;;;;;;;23.42;3.78;;;;;;;11.13;100.00;100768.94;5033806;28;20029;-71
2024/02/14 08:29:39;;;;;;;22.20;3.20;;;;;;;11.13;100.00;100767.00;5038680;28;20529;-70
2024/02/14 08:32:05;;;;;;;20.58;3.65;;;;;;;11.18;100.00;100763.34;5055869;28;20099;-71
2024/02/14 08:34:31;;;;;;;24.20;3.60;;;;;;;11.20;100.00;100761.13;5019976;28;20033;-71
2024/02/14 08:36:56;;;;;;;21.17;3.78;;;;;;;11.23;100.00;100777.22;5054721;28;20021;-71
2024/02/14 08:39:22;;;;;;;24.95;3.97;;;;;;;11.24;100.00;100772.47;5055523;28;20059;-71
2024/02/14 08:41:47;;;;;;;25.08;3.60;;;;;;;11.25;100.00;100780.50;5039123;28;20025;-71
2024/02/14 08:44:13;;;;;;;25.70;3.92;;;;;;;11.30;100.00;100774.06;5045786;28;20385;-71
2024/02/14 08:46:39;;;;;;;21.13;3.35;;;;;;;11.32;100.00;100777.41;5031080;28;20108;-72
2024/02/14 08:49:08;;;;;;;22.20;3.47;;;;;;;11.32;100.00;100786.56;5060457;28;20526;-71
2024/02/14 08:51:37;;;;;;;22.17;3.67;;;;;;;11.38;100.00;100781.78;5049803;28;20527;-71
2024/02/14 08:54:06;;;;;;;22.00;3.72;;;;;;;11.39;100.00;100787.06;5055873;28;20036;-71
2024/02/14 08:56:34;;;;;;;34.30;4.28;;;;;;;11.41;100.00;100784.81;5071281;28;20047;-71
2024/02/14 08:59:02;;;;;;;23.67;4.15;;;;;;;11.43;100.00;100786.47;5078836;28;20020;-71
2024/02/14 09:01:30;;;;;;;17.90;3.63;;;;;;;11.49;100.00;100774.19;5049147;28;20043;-71
2024/02/14 09:03:56;;;;;;;19.38;3.88;;;;;;;11.53;100.00;100778.88;5069524;28;20387;-71
2024/02/14 09:06:22;;;;;;;22.88;4.13;;;;;;;11.57;100.00;100784.66;5066449;28;20036;-71
2024/02/14 09:08:47;;;;;;;24.40;3.78;;;;;;;11.63;100.00;100786.25;5052477;28;20043;-71
2024/02/14 09:11:13;;;;;;;21.10;3.15;;;;;;;11.66;100.00;100782.88;5039289;28;20119;-71
2024/02/14 09:13:41;;;;;;;24.55;3.70;;;;;;;11.70;100.00;100781.19;5061623;28;20034;-71
2024/02/14 09:16:08;;;;;;;22.80;3.45;;;;;;;11.76;100.00;100780.00;5084491;28;20519;-71
2024/02/14 09:18:33;;;;;;;22.45;3.55;;;;;;;11.80;100.00;100789.41;5069171;28;20024;-71
2024/02/14 09:20:59;;;;;;;19.80;3.63;;;;;;;11.82;100.00;100792.72;5088961;28;20053;-71
2024/02/14 09:23:24;;;;;;;24.65;3.40;;;;;;;11.89;100.00;100778.47;5060102;28;20025;-71
2024/02/14 09:25:50;;;;;;;21.05;3.30;;;;;;;11.91;100.00;100780.97;5054336;28;20028;-71
2024/02/14 09:28:16;;;;;;;23.70;3.30;;;;;;;11.97;100.00;100796.50;5061217;28;20024;-71
2024/02/14 09:30:41;;;;;;;20.20;3.22;;;;;;;12.00;100.00;100790.31;5071898;28;20134;-71
2024/02/14 09:33:07;;;;;;;24.33;3.53;;;;;;;12.04;100.00;100789.44;5044637;28;20036;-71
2024/02/14 09:35:32;;;;;;;21.95;3.92;;;;;;;12.09;100.00;100785.78;5071227;28;20034;-71
2024/02/14 09:37:59;;;;;;;25.13;3.40;;;;;;;12.12;100.00;100792.69;5059092;28;20088;-71
2024/02/14 09:40:25;;;;;;;26.88;3.88;;;;;;;12.12;100.00;100799.09;5070947;28;20036;-71
2024/02/14 09:42:55;;;;;;;26.98;3.92;;;;;;;12.16;100.00;100789.00;5061578;28;20036;-71
2024/02/14 09:45:22;;;;;;;28.75;4.18;;;;;;;12.19;100.00;100788.41;5039755;28;20432;-71
2024/02/14 09:47:48;;;;;;;20.25;3.72;;;;;;;12.22;100.00;100784.22;5052078;28;20056;-71
2024/02/14 09:50:13;;;;;;;26.92;4.30;;;;;;;12.25;100.00;100787.22;5083569;28;20048;-71
2024/02/14 09:52:39;;;;;;;17.35;3.42;;;;;;;12.26;100.00;100791.69;5059989;28;20039;-71
2024/02/14 09:55:06;;;;;;;24.40;3.75;;;;;;;12.33;100.00;100782.13;5067118;28;20073;-71
2024/02/14 09:57:32;;;;;;;23.65;3.83;;;;;;;12.35;100.00;100788.22;5059649;28;20056;-71
2024/02/14 09:59:59;;;;;;;27.08;4.07;;;;;;;12.39;100.00;100780.91;5043002;28;20021;-71
2024/02/14 10:02:24;;;;;;;23.23;3.33;;;;;;;12.43;100.00;100787.56;5059135;28;20051;-71
2024/02/14 10:04:50;;;;;;;21.48;3.50;;;;;;;12.47;100.00;100788.59;5059807;28;20102;-71
2024/02/14 10:07:15;;;;;;;20.95;3.78;;;;;;;12.50;100.00;100786.03;5027756;28;20024;-71
2024/02/14 10:09:41;;;;;;;24.63;3.65;;;;;;;12.56;100.00;100781.22;5038360;28;20028;-71
2024/02/14 10:12:08;;;;;;;21.40;3.30;;;;;;;12.61;100.00;100778.38;5044454;28;20111;-71
2024/02/14 10:14:36;;;;;;;26.92;4.25;;;;;;;12.66;100.00;100778.28;5047124;28;20032;-71
2024/02/14 10:17:02;;;;;;;27.90;3.40;;;;;;;12.72;100.00;100777.09;5041728;28;20020;-71
2024/02/14 10:19:28;;;;;;;22.77;3.83;;;;;;;12.78;100.00;100777.00;5079882;28;20108;-71
2024/02/14 10:22:01;;;;;;;25.80;3.45;;;;;;;12.85;100.00;100780.25;5067626;28;20043;-71
2024/02/14 10:24:28;;;;;;;20.65;3.78;;;;;;;12.89;100.00;100784.06;5047555;28;20083;-71
2024/02/14 10:26:53;;;;;;;22.65;4.18;;;;;;;12.92;100.00;100787.09;5044419;28;20024;-71
2024/02/14 10:29:20;;;;;;;19.20;3.10;;;;;;;12.97;100.00;100773.06;5048721;28;20032;-71
2024/02/14 10:31:46;;;;;;;26.65;3.90;;;;;;;13.04;100.00;100772.69;5067039;28;20431;-71
2024/02/14 10:34:11;;;;;;;21.15;3.60;;;;;;;13.11;100.00;100770.31;5037269;28;20063;-71
2024/02/14 10:36:40;;;;;;;22.88;3.17;;;;;;;13.16;100.00;100778.59;5065281;28;20036;-71
2024/02/14 10:39:07;;;;;;;19.75;3.70;;;;;;;13.23;100.00;100775.41;5030867;28;20028;-71
2024/02/14 10:41:35;;;;;;;17.92;2.90;;;;;;;13.30;100.00;100777.88;5065511;28;20036;-71
2024/02/14 10:44:07;;;;;;;21.90;3.90;;;;;;;13.36;100.00;100776.63;5045299;28;20139;-70
2024/02/14 10:46:36;;;;;;;22.13;3.17;;;;;;;13.39;100.00;100776.84;5064791;28;20507;-69
2024/02/14 10:49:05;;;;;;;17.65;3.50;;;;;;;13.46;100.00;100786.78;5044063;28;20036;-69
2024/02/14 10:51:33;;;;;;;21.98;3.17;;;;;;;13.51;100.00;100779.16;5065826;28;20025;-71
2024/02/14 10:54:01;;;;;;;26.83;3.72;;;;;;;13.57;100.00;100799.44;5049586;28;20138;-69
2024/02/14 10:56:29;;;;;;;20.75;3.28;;;;;;;13.60;100.00;100791.25;5061586;28;20037;-69
2024/02/14 10:58:57;;;;;;;24.88;3.20;;;;;;;13.69;100.00;100784.97;5095597;28;20095;-70
2024/02/14 11:01:24;;;;;;;23.63;3.35;;;;;;;13.73;100.00;100788.78;5048918;28;20044;-71
2024/02/14 11:03:50;;;;;;;21.38;3.25;;;;;;;13.77;100.00;100789.84;5059333;28;20031;-70